createdAt,value
2018-01-28T00:00:28.405Z,12.60
2018-01-28T00:02:56.681Z,15.20
2018-01-28T00:05:24.949Z,18.93
2018-01-28T00:07:53.213Z,14.07
2018-01-28T00:10:21.486Z,15.80
2018-01-28T00:12:49.773Z,10.43
2018-01-28T00:15:18.068Z,12.30
2018-01-28T00:17:46.318Z,12.67
2018-01-28T00:20:14.647Z,18.93
2018-01-28T00:22:42.909Z,12.50
2018-01-28T00:25:11.194Z,14.40
2018-01-28T00:27:39.458Z,17.30
2018-01-28T00:30:07.698Z,16.33
2018-01-28T00:32:35.973Z,8.73
2018-01-28T00:35:04.982Z,13.40
2018-01-28T00:37:33.270Z,12.97
2018-01-28T00:40:01.499Z,13.77
2018-01-28T00:42:29.763Z,12.83
2018-01-28T00:44:58.038Z,14.20
2018-01-28T00:47:26.323Z,9.77
2018-01-28T00:49:54.615Z,11.33
2018-01-28T00:52:23.654Z,10.50
2018-01-28T00:54:51.892Z,11.17
2018-01-28T00:57:20.905Z,13.90
2018-01-28T00:59:49.147Z,12.23
2018-01-28T01:02:18.169Z,11.30
2018-01-28T01:04:46.405Z,10.50
2018-01-28T01:07:15.453Z,8.83
2018-01-28T01:09:43.712Z,12.13
2018-01-28T01:12:12.005Z,11.67
2018-01-28T01:14:40.266Z,8.47
2018-01-28T01:17:08.662Z,10.40
2018-01-28T01:19:36.889Z,11.43
2018-01-28T01:22:05.172Z,10.83
2018-01-28T01:24:33.405Z,13.70
2018-01-28T01:27:01.714Z,6.50
2018-01-28T01:29:31.507Z,10.40
2018-01-28T01:31:59.761Z,5.13
2018-01-28T01:34:27.992Z,10.00
2018-01-28T01:36:56.246Z,5.60
2018-01-28T01:39:24.475Z,10.33
2018-01-28T01:41:53.481Z,7.40
2018-01-28T01:44:21.744Z,5.93
2018-01-28T01:46:50.073Z,3.70
2018-01-28T01:49:34.594Z,5.67
2018-01-28T01:52:02.864Z,7.43
2018-01-28T01:54:31.859Z,5.30
2018-01-28T01:57:00.114Z,9.10
2018-01-28T01:59:29.143Z,4.37
2018-01-28T02:01:57.424Z,6.53
2018-01-28T02:04:25.661Z,3.63
2018-01-28T02:06:54.702Z,2.80
2018-01-28T02:09:23.734Z,7.90
2018-01-28T02:11:52.571Z,6.53
2018-01-28T02:14:20.826Z,4.13
2018-01-28T02:16:49.844Z,3.20
2018-01-28T02:19:18.116Z,2.43
2018-01-28T02:21:47.092Z,3.20
2018-01-28T02:24:16.101Z,2.47
2018-01-28T02:26:45.115Z,2.83
2018-01-28T02:29:13.373Z,2.80
2018-01-28T02:31:42.341Z,4.07
2018-01-28T02:34:11.406Z,2.70
2018-01-28T02:36:39.616Z,2.50
2018-01-28T02:39:07.891Z,2.33
2018-01-28T02:41:36.899Z,2.40
2018-01-28T02:44:05.942Z,1.63
2018-01-28T02:46:34.218Z,3.60
2018-01-28T02:49:02.489Z,2.80
2018-01-28T02:51:30.751Z,2.23
2018-01-28T02:53:59.045Z,1.80
2018-01-28T02:56:27.276Z,2.50
2018-01-28T02:58:56.302Z,1.80
2018-01-28T03:01:24.571Z,1.87
2018-01-28T03:03:52.814Z,1.60
2018-01-28T03:06:21.106Z,1.97
2018-01-28T03:08:50.083Z,2.20
2018-01-28T03:11:18.395Z,1.70
2018-01-28T03:13:47.389Z,1.43
2018-01-28T03:16:15.829Z,6.13
2018-01-28T03:18:44.045Z,2.20
2018-01-28T03:21:12.324Z,1.67
2018-01-28T03:23:41.316Z,2.07
2018-01-28T03:26:09.569Z,1.70
2018-01-28T03:28:38.606Z,1.67
2018-01-28T03:31:06.851Z,4.83
2018-01-28T03:33:35.885Z,2.27
2018-01-28T03:36:04.118Z,1.37
2018-01-28T03:38:33.148Z,1.40
2018-01-28T03:41:01.381Z,1.50
2018-01-28T03:43:29.640Z,1.50
2018-01-28T03:45:57.901Z,1.30
2018-01-28T03:48:26.964Z,1.17
2018-01-28T03:50:55.220Z,1.30
2018-01-28T03:53:24.228Z,1.30
2018-01-28T03:55:52.446Z,1.90
2018-01-28T03:58:20.669Z,1.13
2018-01-28T04:00:48.928Z,1.10
2018-01-28T04:03:17.184Z,1.30
2018-01-28T04:05:45.450Z,1.10
2018-01-28T04:08:13.705Z,1.30
2018-01-28T04:10:41.941Z,1.23
2018-01-28T04:13:11.073Z,4.03
2018-01-28T04:15:40.062Z,1.30
2018-01-28T04:18:08.305Z,1.20
2018-01-28T04:20:36.544Z,1.20
2018-01-28T04:23:04.818Z,1.63
2018-01-28T04:25:33.045Z,1.43
2018-01-28T04:28:02.064Z,1.20
2018-01-28T04:30:30.327Z,1.70
2018-01-28T04:32:59.335Z,3.13
2018-01-28T04:35:27.578Z,1.43
2018-01-28T04:37:56.641Z,1.37
2018-01-28T04:40:24.874Z,1.53
2018-01-28T04:42:53.868Z,1.70
2018-01-28T04:45:22.898Z,1.20
2018-01-28T04:47:51.184Z,1.47
2018-01-28T04:50:19.411Z,2.67
2018-01-28T04:52:48.435Z,1.70
2018-01-28T04:55:16.671Z,1.60
2018-01-28T04:57:45.705Z,1.70
2018-01-28T05:00:13.933Z,1.60
2018-01-28T05:02:43.675Z,5.90
2018-01-28T05:05:12.036Z,1.50
2018-01-28T05:07:40.289Z,1.63
2018-01-28T05:10:08.977Z,2.30
2018-01-28T05:12:37.206Z,1.70
2018-01-28T05:15:05.465Z,2.00
2018-01-28T05:17:34.497Z,1.73
2018-01-28T05:20:02.742Z,1.80
2018-01-28T05:22:31.753Z,4.20
2018-01-28T05:25:00.058Z,1.73
2018-01-28T05:27:28.316Z,1.80
2018-01-28T05:29:56.645Z,3.00
2018-01-28T05:32:24.879Z,2.17
2018-01-28T05:34:53.146Z,2.40
2018-01-28T05:37:22.151Z,1.87
2018-01-28T05:39:50.369Z,2.40
2018-01-28T05:42:20.129Z,2.40
2018-01-28T05:44:48.420Z,2.10
2018-01-28T05:47:16.673Z,2.23
2018-01-28T05:49:45.686Z,3.40
2018-01-28T05:52:13.933Z,2.03
2018-01-28T05:54:42.194Z,1.70
2018-01-28T05:57:10.437Z,2.47
2018-01-28T05:59:38.708Z,1.80
2018-01-28T06:02:06.945Z,1.90
2018-01-28T06:04:35.942Z,2.57
2018-01-28T06:07:04.940Z,1.93
2018-01-28T06:09:33.198Z,1.50
2018-01-28T06:12:02.226Z,1.70
2018-01-28T06:14:30.478Z,1.40
2018-01-28T06:16:59.511Z,1.30
2018-01-28T06:19:27.774Z,1.37
2018-01-28T06:21:56.052Z,1.50
2018-01-28T06:24:25.029Z,1.27
2018-01-28T06:26:53.306Z,1.00
2018-01-28T06:29:22.296Z,1.13
2018-01-28T06:31:51.326Z,1.57
2018-01-28T06:34:19.541Z,1.23
2018-01-28T06:36:47.806Z,1.20
2018-01-28T06:39:16.055Z,1.47
2018-01-28T06:41:44.278Z,1.20
2018-01-28T06:44:13.324Z,1.23
2018-01-28T06:46:41.548Z,1.00
2018-01-28T06:49:10.402Z,1.10
2018-01-28T06:51:38.623Z,1.40
2018-01-28T06:54:07.633Z,1.40
2018-01-28T06:56:36.678Z,1.50
2018-01-28T06:59:04.921Z,1.40
2018-01-28T07:01:33.152Z,1.43
2018-01-28T07:04:02.565Z,1.30
2018-01-28T07:06:31.085Z,1.53
2018-01-28T07:09:00.096Z,1.53
2018-01-28T07:11:28.375Z,1.33
2018-01-28T07:13:56.750Z,1.70
2018-01-28T07:16:25.725Z,4.87
2018-01-28T07:18:53.972Z,2.50
2018-01-28T07:21:22.242Z,2.90
2018-01-28T07:23:50.481Z,2.83
2018-01-28T07:26:18.705Z,3.30
2018-01-28T07:28:47.017Z,3.83
2018-01-28T07:31:15.262Z,2.80
2018-01-28T07:33:44.283Z,3.70
2018-01-28T07:36:13.274Z,7.13
2018-01-28T07:38:42.303Z,3.23
2018-01-28T07:41:10.538Z,3.67
2018-01-28T07:43:39.586Z,11.93
2018-01-28T07:46:07.822Z,4.63
2018-01-28T07:48:36.082Z,6.97
2018-01-28T07:51:05.117Z,3.83
2018-01-28T07:53:34.100Z,11.50
2018-01-28T07:56:02.362Z,4.50
2018-01-28T07:58:30.623Z,4.90
2018-01-28T08:00:59.677Z,40.47
2018-01-28T08:03:27.944Z,8.20
2018-01-28T08:05:56.202Z,12.70
2018-01-28T08:08:24.959Z,5.30
2018-01-28T08:10:57.684Z,5.60
2018-01-28T08:13:40.822Z,8.53
2018-01-28T08:16:09.054Z,8.50
2018-01-28T08:18:38.083Z,7.07
2018-01-28T08:21:06.363Z,6.60
2018-01-28T08:23:34.602Z,7.83
2018-01-28T08:26:03.649Z,10.20
2018-01-28T08:28:50.656Z,12.33
2018-01-28T08:31:18.923Z,8.23
2018-01-28T08:33:47.225Z,15.90
2018-01-28T08:36:15.477Z,12.23
2018-01-28T08:38:43.707Z,9.90
2018-01-28T08:41:12.000Z,12.60
2018-01-28T08:43:40.197Z,11.47
2018-01-28T08:46:08.446Z,15.17
2018-01-28T08:48:37.491Z,14.10
2018-01-28T08:51:05.750Z,13.53
2018-01-28T08:53:34.006Z,9.80
2018-01-28T08:56:02.204Z,7.57
2018-01-28T08:58:30.457Z,8.70
2018-01-28T09:00:59.500Z,9.33
2018-01-28T09:03:27.734Z,10.97
2018-01-28T09:05:56.750Z,12.13
2018-01-28T09:08:25.024Z,12.57
2018-01-28T09:10:53.259Z,10.13
2018-01-28T09:13:22.279Z,8.97
2018-01-28T09:15:51.289Z,10.70
2018-01-28T09:18:19.583Z,9.23
2018-01-28T09:20:47.814Z,10.37
2018-01-28T09:23:16.869Z,7.23
2018-01-28T09:25:45.099Z,10.07
2018-01-28T09:28:14.144Z,8.30
2018-01-28T09:30:42.386Z,16.13
2018-01-28T09:33:10.637Z,13.07
2018-01-28T09:35:39.677Z,12.07
2018-01-28T09:38:07.919Z,14.97
2018-01-28T09:40:36.165Z,14.67
2018-01-28T09:43:04.410Z,13.90
2018-01-28T09:45:32.713Z,12.80
2018-01-28T09:48:00.930Z,13.10
2018-01-28T09:50:29.681Z,15.43
2018-01-28T09:52:57.914Z,13.90
2018-01-28T09:55:26.175Z,13.37
2018-01-28T09:57:55.189Z,11.90
2018-01-28T10:00:23.448Z,11.03
2018-01-28T10:02:52.553Z,15.30
2018-01-28T10:05:20.835Z,11.63
2018-01-28T10:07:49.131Z,9.80
2018-01-28T10:10:17.366Z,14.80
2018-01-28T10:12:46.446Z,11.27
2018-01-28T10:15:14.703Z,11.57
2018-01-28T10:17:42.985Z,11.07
2018-01-28T10:20:12.017Z,9.90
2018-01-28T10:22:41.074Z,15.17
2018-01-28T10:25:09.330Z,9.50
2018-01-28T10:27:37.583Z,12.90
2018-01-28T10:30:06.735Z,10.73
2018-01-28T10:32:34.970Z,14.87
2018-01-28T10:35:03.294Z,13.27
2018-01-28T10:37:33.114Z,10.73
2018-01-28T10:40:01.380Z,8.57
2018-01-28T10:42:29.644Z,17.37
2018-01-28T10:44:59.459Z,15.67
2018-01-28T10:47:27.734Z,11.63
2018-01-28T10:49:56.011Z,12.50
2018-01-28T10:52:24.247Z,10.67
2018-01-28T10:54:52.545Z,10.80
2018-01-28T10:57:20.834Z,8.63
2018-01-28T10:59:49.135Z,8.93
2018-01-28T11:02:19.159Z,9.90
2018-01-28T11:04:50.408Z,16.57
2018-01-28T11:07:18.717Z,10.57
2018-01-28T11:09:46.967Z,10.20
2018-01-28T11:12:15.246Z,15.27
2018-01-28T11:14:43.543Z,10.73
2018-01-28T11:17:11.797Z,11.93
2018-01-28T11:19:40.077Z,13.93
2018-01-28T11:22:08.371Z,14.03
2018-01-28T11:24:37.423Z,15.77
2018-01-28T11:27:05.725Z,13.73
2018-01-28T11:29:33.963Z,14.87
2018-01-28T11:32:02.237Z,10.67
2018-01-28T11:34:30.515Z,21.80
2018-01-28T11:36:58.793Z,20.43
2018-01-28T11:39:27.094Z,20.40
2018-01-28T11:41:55.379Z,16.67
2018-01-28T11:44:23.679Z,18.40
2018-01-28T11:46:51.923Z,25.03
2018-01-28T11:49:20.207Z,20.73
2018-01-28T11:51:48.474Z,22.93
2018-01-28T11:54:16.745Z,17.00
2018-01-28T11:56:45.004Z,19.30
2018-01-28T11:59:13.249Z,20.17
2018-01-28T12:01:42.266Z,16.87
2018-01-28T12:04:10.546Z,11.03
2018-01-28T12:06:38.873Z,13.43
2018-01-28T12:09:07.132Z,18.07
2018-01-28T12:11:35.424Z,20.30
2018-01-28T12:14:03.725Z,18.10
2018-01-28T12:16:31.979Z,19.27
2018-01-28T12:19:01.084Z,28.03
2018-01-28T12:21:29.456Z,15.40
2018-01-28T12:23:57.792Z,16.87
2018-01-28T12:26:27.349Z,19.73
2018-01-28T12:28:56.417Z,22.67
2018-01-28T12:31:24.697Z,19.97
2018-01-28T12:33:52.972Z,35.57
2018-01-28T12:36:21.359Z,18.47
2018-01-28T12:38:49.606Z,18.07
2018-01-28T12:41:17.910Z,23.97
2018-01-28T12:43:46.174Z,18.37
2018-01-28T12:46:14.455Z,18.37
2018-01-28T12:48:42.737Z,15.17
2018-01-28T12:51:10.999Z,24.47
2018-01-28T12:53:39.285Z,20.87
2018-01-28T12:56:07.590Z,23.30
2018-01-28T12:58:35.909Z,23.50
2018-01-28T13:01:05.079Z,17.30
2018-01-28T13:03:33.373Z,19.10
2018-01-28T13:06:02.430Z,19.30
2018-01-28T13:08:30.673Z,23.60
2018-01-28T13:10:58.945Z,26.10
2018-01-28T13:13:27.185Z,31.63
2018-01-28T13:15:55.478Z,20.60
2018-01-28T13:18:23.918Z,19.70
2018-01-28T13:20:52.230Z,15.73
2018-01-28T13:23:20.512Z,34.33
2018-01-28T13:25:49.734Z,30.47
2018-01-28T13:28:18.061Z,23.13
2018-01-28T13:30:46.336Z,21.10
2018-01-28T13:33:14.613Z,23.70
2018-01-28T13:35:42.880Z,22.90
2018-01-28T13:38:11.169Z,19.00
2018-01-28T13:40:39.580Z,21.20
2018-01-28T13:43:07.813Z,22.07
2018-01-28T13:45:36.113Z,30.07
2018-01-28T13:48:05.279Z,14.80
2018-01-28T13:50:33.612Z,14.53
2018-01-28T13:53:02.650Z,17.23
2018-01-28T13:55:31.084Z,16.70
2018-01-28T13:57:59.382Z,17.00
2018-01-28T14:00:28.467Z,14.53
2018-01-28T14:02:56.704Z,14.40
2018-01-28T14:05:25.006Z,23.23
2018-01-28T14:07:53.346Z,14.50
2018-01-28T14:10:21.626Z,17.27
2018-01-28T14:12:50.046Z,18.07
2018-01-28T14:15:18.445Z,19.40
2018-01-28T14:17:46.712Z,11.30
2018-01-28T14:20:14.930Z,11.33
2018-01-28T14:22:43.227Z,13.80
2018-01-28T14:25:11.528Z,12.70
2018-01-28T14:27:39.786Z,6.50
2018-01-28T14:30:08.068Z,14.97
2018-01-28T14:32:36.345Z,19.00
2018-01-28T14:35:04.627Z,8.63
2018-01-28T14:37:32.839Z,18.80
2018-01-28T14:40:01.126Z,15.80
2018-01-28T14:42:29.387Z,12.93
2018-01-28T14:44:58.482Z,10.67
2018-01-28T14:47:26.716Z,14.73
2018-01-28T14:49:55.014Z,12.73
2018-01-28T14:52:23.239Z,11.67
2018-01-28T14:54:51.566Z,7.40
2018-01-28T14:57:19.826Z,15.80
2018-01-28T14:59:48.086Z,14.80
2018-01-28T15:02:16.342Z,10.00
2018-01-28T15:04:45.401Z,18.40
2018-01-28T15:07:13.671Z,12.60
2018-01-28T15:09:41.986Z,8.63
2018-01-28T15:12:11.004Z,13.30
2018-01-28T15:14:39.279Z,16.00
2018-01-28T15:17:07.535Z,9.63
2018-01-28T15:19:36.572Z,13.80
2018-01-28T15:22:04.955Z,10.40
2018-01-28T15:24:33.244Z,12.83
2018-01-28T15:27:01.513Z,9.83
2018-01-28T15:29:30.680Z,18.00
2018-01-28T15:31:58.988Z,10.13
2018-01-28T15:34:27.306Z,24.07
2018-01-28T15:36:56.842Z,19.43
2018-01-28T15:39:25.888Z,15.83
2018-01-28T15:41:54.296Z,9.33
2018-01-28T15:44:22.725Z,9.83
2018-01-28T15:46:51.040Z,20.63
2018-01-28T15:49:19.344Z,28.10
2018-01-28T15:51:48.340Z,14.47
2018-01-28T15:54:16.732Z,14.20
2018-01-28T15:56:45.006Z,12.87
2018-01-28T15:59:14.004Z,13.50
2018-01-28T16:01:42.329Z,17.37
2018-01-28T16:04:10.654Z,14.87
2018-01-28T16:06:39.972Z,11.53
2018-01-28T16:09:08.377Z,26.17
2018-01-28T16:11:38.118Z,16.73
2018-01-28T16:14:06.359Z,12.30
2018-01-28T16:16:34.608Z,9.97
2018-01-28T16:19:02.901Z,14.20
2018-01-28T16:21:31.205Z,20.30
2018-01-28T16:23:59.486Z,14.10
2018-01-28T16:26:27.736Z,30.33
2018-01-28T16:28:56.078Z,22.53
2018-01-28T16:31:24.384Z,28.50
2018-01-28T16:33:53.445Z,18.30
2018-01-28T16:36:23.589Z,20.30
2018-01-28T16:38:51.914Z,23.40
2018-01-28T16:44:30.100Z,19.57
2018-01-28T16:46:58.420Z,22.20
2018-01-28T16:49:26.707Z,21.80
2018-01-28T16:51:55.019Z,25.83
2018-01-28T16:54:23.325Z,18.20
2018-01-28T16:56:51.835Z,19.73
2018-01-28T16:59:27.681Z,23.77
2018-01-28T17:02:03.028Z,29.80
2018-01-28T17:04:31.331Z,23.83
2018-01-28T17:06:59.786Z,27.93
2018-01-28T17:09:28.064Z,21.30
2018-01-28T17:11:56.503Z,21.47
2018-01-28T17:14:25.596Z,29.63
2018-01-28T17:16:53.857Z,27.93
2018-01-28T17:19:22.355Z,25.27
2018-01-28T17:21:51.406Z,30.53
2018-01-28T17:24:19.694Z,29.70
2018-01-28T17:26:48.436Z,24.37
2018-01-28T17:29:17.530Z,24.87
2018-01-28T17:31:48.717Z,35.13
2018-01-28T17:34:17.086Z,24.13
2018-01-28T17:36:45.408Z,30.07
2018-01-28T17:39:14.430Z,26.73
2018-01-28T17:41:42.862Z,25.17
2018-01-28T17:44:11.171Z,22.07
2018-01-28T17:46:39.521Z,27.33
2018-01-28T17:49:07.794Z,22.83
2018-01-28T17:51:36.064Z,34.67
2018-01-28T17:54:05.465Z,30.13
2018-01-28T17:56:34.247Z,29.20
2018-01-28T17:59:02.534Z,27.00
2018-01-28T18:01:30.820Z,23.23
2018-01-28T18:03:59.152Z,25.50
2018-01-28T18:06:28.173Z,24.47
2018-01-28T18:08:56.544Z,26.00
2018-01-28T18:11:24.830Z,22.47
2018-01-28T18:13:53.122Z,25.77
2018-01-28T18:16:21.468Z,27.57
2018-01-28T18:18:50.538Z,20.43
2018-01-28T18:21:19.640Z,24.30
2018-01-28T18:23:47.931Z,24.77
2018-01-28T18:26:17.840Z,30.40
2018-01-28T18:28:46.873Z,20.73
2018-01-28T18:31:15.738Z,34.50
2018-01-28T18:33:44.020Z,26.00
2018-01-28T18:36:12.456Z,20.47
2018-01-28T18:38:40.742Z,21.93
2018-01-28T18:41:09.061Z,20.33
2018-01-28T18:43:38.292Z,21.53
2018-01-28T18:46:06.622Z,36.23
2018-01-28T18:48:35.276Z,22.10
2018-01-28T18:51:03.543Z,22.50
2018-01-28T18:53:31.897Z,21.40
2018-01-28T18:56:00.240Z,22.17
2018-01-28T18:58:29.418Z,20.30
2018-01-28T19:00:58.570Z,19.10
2018-01-28T19:03:26.996Z,19.07
2018-01-28T19:05:55.263Z,17.00
2018-01-28T19:08:23.539Z,22.63
2018-01-28T19:10:51.878Z,16.93
2018-01-28T19:13:20.197Z,23.13
2018-01-28T19:15:48.618Z,21.50
2018-01-28T19:18:17.046Z,21.17
2018-01-28T19:20:45.351Z,21.27
2018-01-28T19:23:13.796Z,24.37
2018-01-28T19:25:42.311Z,21.83
2018-01-28T19:28:11.650Z,22.00
2018-01-28T19:30:40.501Z,19.33
2018-01-28T19:33:08.968Z,17.13
2018-01-28T19:35:37.297Z,18.73
2018-01-28T19:38:05.651Z,26.30
2018-01-28T19:40:33.983Z,17.07
2018-01-28T19:43:03.579Z,17.20
2018-01-28T19:45:31.853Z,20.10
2018-01-28T19:48:00.220Z,21.30
2018-01-28T19:50:29.487Z,17.50
2018-01-28T19:52:57.780Z,22.73
2018-01-28T19:55:28.425Z,19.90
2018-01-28T19:57:57.083Z,17.93
2018-01-28T20:00:27.203Z,18.20
2018-01-28T20:02:57.019Z,19.80
2018-01-28T20:05:25.431Z,17.80
2018-01-28T20:07:55.011Z,22.27
2018-01-28T20:10:24.032Z,15.47
2018-01-28T20:12:53.068Z,18.77
2018-01-28T20:15:21.393Z,14.87
2018-01-28T20:17:49.969Z,14.17
2018-01-28T20:20:18.925Z,14.57
2018-01-28T20:22:47.614Z,15.10
2018-01-28T20:25:16.955Z,16.97
2018-01-28T20:27:45.923Z,14.07
2018-01-28T20:30:14.248Z,14.03
2018-01-28T20:32:43.925Z,12.87
2018-01-28T20:35:12.169Z,14.67
2018-01-28T20:37:40.735Z,18.50
2018-01-28T20:40:09.761Z,15.40
2018-01-28T20:42:38.039Z,11.70
2018-01-28T20:45:06.383Z,12.07
2018-01-28T20:47:34.720Z,11.60
2018-01-28T20:50:03.258Z,13.57
2018-01-28T20:52:31.582Z,15.67
2018-01-28T20:55:00.087Z,12.30
2018-01-28T20:57:28.957Z,23.47
2018-01-28T20:59:58.335Z,19.70
2018-01-28T21:02:26.611Z,16.27
2018-01-28T21:04:55.377Z,17.77
2018-01-28T21:07:23.769Z,16.70
2018-01-28T21:09:52.121Z,108.90
2018-01-28T21:12:22.188Z,102.37
2018-01-28T21:14:51.414Z,19.73
2018-01-28T21:17:21.132Z,22.00
2018-01-28T21:19:50.209Z,16.90
2018-01-28T21:22:20.039Z,20.73
2018-01-28T21:24:49.124Z,20.17
2018-01-28T21:27:17.410Z,14.33
2018-01-28T21:29:45.691Z,15.63
2018-01-28T21:32:13.941Z,18.13
2018-01-28T21:34:42.251Z,19.90
2018-01-28T21:37:11.261Z,14.37
2018-01-28T21:39:39.525Z,22.73
2018-01-28T21:42:08.568Z,16.33
2018-01-28T21:44:36.825Z,17.00
2018-01-28T21:47:05.086Z,14.90
2018-01-28T21:49:33.391Z,14.37
2018-01-28T21:52:02.799Z,14.63
2018-01-28T21:54:31.075Z,14.37
2018-01-28T21:56:59.424Z,15.70
2018-01-28T21:59:27.680Z,18.13
2018-01-28T22:01:56.894Z,22.70
2018-01-28T22:04:25.938Z,19.43
2018-01-28T22:06:54.201Z,16.13
2018-01-28T22:09:28.364Z,18.83
2018-01-28T22:11:56.602Z,16.67
2018-01-28T22:14:24.865Z,17.83
2018-01-28T22:16:53.154Z,19.70
2018-01-28T22:19:21.415Z,22.23
2018-01-28T22:21:49.696Z,20.50
2018-01-28T22:24:17.962Z,17.10
2018-01-28T22:26:46.211Z,22.70
2018-01-28T22:29:15.252Z,14.17
2018-01-28T22:31:43.515Z,13.83
2018-01-28T22:34:11.810Z,14.60
2018-01-28T22:36:40.093Z,19.23
2018-01-28T22:39:08.353Z,18.83
2018-01-28T22:41:38.882Z,20.37
2018-01-28T22:44:07.865Z,19.97
2018-01-28T22:46:36.114Z,21.07
2018-01-28T22:49:05.145Z,19.93
2018-01-28T22:51:33.403Z,19.77
2018-01-28T22:54:01.663Z,21.83
2018-01-28T22:56:30.237Z,19.00
2018-01-28T22:58:59.252Z,18.53
2018-01-28T23:01:31.837Z,16.80
2018-01-28T23:04:00.864Z,14.27
2018-01-28T23:06:29.190Z,14.93
2018-01-28T23:08:57.400Z,14.43
2018-01-28T23:11:25.690Z,13.23
2018-01-28T23:13:53.981Z,16.43
2018-01-28T23:16:23.007Z,15.50
2018-01-28T23:18:51.268Z,15.27
2018-01-28T23:21:19.517Z,13.00
2018-01-28T23:23:47.749Z,16.43
2018-01-28T23:26:16.786Z,13.57
2018-01-28T23:28:45.021Z,12.50
2018-01-28T23:31:13.305Z,16.93
2018-01-28T23:33:42.317Z,9.60
2018-01-28T23:36:11.330Z,10.30
2018-01-28T23:38:39.569Z,9.60
2018-01-28T23:41:08.626Z,10.30
2018-01-28T23:43:36.893Z,7.40
2018-01-28T23:46:05.212Z,9.10
2018-01-28T23:48:33.455Z,11.07
2018-01-28T23:51:01.720Z,8.57
2018-01-28T23:53:29.971Z,10.33
2018-01-28T23:55:58.205Z,8.20
2018-01-28T23:58:27.011Z,5.47
